sensor_id;sensor_type;location;lat;lon;timestamp;temperature;humidity
15707;DHT22;7953;54.302;10.128;2023-08-31T00:01:01;14.40;99.90
15707;DHT22;7953;54.302;10.128;2023-08-31T00:03:29;14.40;99.90
15707;DHT22;7953;54.302;10.128;2023-08-31T00:05:56;14.50;99.90
15707;DHT22;7953;54.302;10.128;2023-08-31T00:08:23;14.50;99.90
15707;DHT22;7953;54.302;10.128;2023-08-31T00:10:57;14.40;99.90
15707;DHT22;7953;54.302;10.128;2023-08-31T00:13:24;14.40;99.90
15707;DHT22;7953;54.302;10.128;2023-08-31T00:15:54;14.30;99.90
15707;DHT22;7953;54.302;10.128;2023-08-31T00:18:21;14.20;99.90
15707;DHT22;7953;54.302;10.128;2023-08-31T00:20:47;14.20;99.90
15707;DHT22;7953;54.302;10.128;2023-08-31T00:23:14;14.20;99.90
15707;DHT22;7953;54.302;10.128;2023-08-31T00:25:41;14.20;99.90
15707;DHT22;7953;54.302;10.128;2023-08-31T00:28:10;14.20;99.90
15707;DHT22;7953;54.302;10.128;2023-08-31T00:30:37;14.20;99.90
15707;DHT22;7953;54.302;10.128;2023-08-31T00:33:04;14.20;99.90
15707;DHT22;7953;54.302;10.128;2023-08-31T00:35:33;14.20;99.90
15707;DHT22;7953;54.302;10.128;2023-08-31T00:38:00;14.20;99.90
15707;DHT22;7953;54.302;10.128;2023-08-31T00:40:30;14.30;99.90
15707;DHT22;7953;54.302;10.128;2023-08-31T00:42:59;14.30;99.90
15707;DHT22;7953;54.302;10.128;2023-08-31T00:45:27;14.30;99.90
15707;DHT22;7953;54.302;10.128;2023-08-31T00:47:54;14.20;99.90
15707;DHT22;7953;54.302;10.128;2023-08-31T00:50:22;14.20;99.90
15707;DHT22;7953;54.302;10.128;2023-08-31T00:52:49;14.20;99.90
15707;DHT22;7953;54.302;10.128;2023-08-31T00:55:17;14.10;99.90
15707;DHT22;7953;54.302;10.128;2023-08-31T00:57:44;14.10;99.90
15707;DHT22;7953;54.302;10.128;2023-08-31T01:00:12;14.10;99.90
15707;DHT22;7953;54.302;10.128;2023-08-31T01:02:50;14.10;99.90
15707;DHT22;7953;54.302;10.128;2023-08-31T01:05:29;14.10;99.90
15707;DHT22;7953;54.302;10.128;2023-08-31T01:08:06;14.10;99.90
15707;DHT22;7953;54.302;10.128;2023-08-31T01:10:43;14.10;99.90
15707;DHT22;7953;54.302;10.128;2023-08-31T01:13:14;14.10;99.90
15707;DHT22;7953;54.302;10.128;2023-08-31T01:15:44;14.10;99.90
15707;DHT22;7953;54.302;10.128;2023-08-31T01:18:15;14.10;99.90
15707;DHT22;7953;54.302;10.128;2023-08-31T01:20:46;14.10;99.90
15707;DHT22;7953;54.302;10.128;2023-08-31T01:23:19;14.00;99.90
15707;DHT22;7953;54.302;10.128;2023-08-31T01:25:48;14.10;99.90
15707;DHT22;7953;54.302;10.128;2023-08-31T01:28:16;14.10;99.90
15707;DHT22;7953;54.302;10.128;2023-08-31T01:30:42;14.10;99.90
15707;DHT22;7953;54.302;10.128;2023-08-31T01:33:09;14.00;99.90
15707;DHT22;7953;54.302;10.128;2023-08-31T01:35:42;14.00;99.90
15707;DHT22;7953;54.302;10.128;2023-08-31T01:38:11;14.00;99.90
15707;DHT22;7953;54.302;10.128;2023-08-31T01:40:42;14.00;99.90
15707;DHT22;7953;54.302;10.128;2023-08-31T01:43:12;14.00;99.90
15707;DHT22;7953;54.302;10.128;2023-08-31T01:45:40;14.00;99.90
15707;DHT22;7953;54.302;10.128;2023-08-31T01:48:08;14.00;99.90
15707;DHT22;7953;54.302;10.128;2023-08-31T01:50:35;14.00;99.90
15707;DHT22;7953;54.302;10.128;2023-08-31T01:53:02;14.00;99.90
15707;DHT22;7953;54.302;10.128;2023-08-31T01:55:29;14.00;99.90
15707;DHT22;7953;54.302;10.128;2023-08-31T01:57:56;14.00;99.90
15707;DHT22;7953;54.302;10.128;2023-08-31T02:00:25;14.00;99.90
15707;DHT22;7953;54.302;10.128;2023-08-31T02:02:52;14.00;99.90
15707;DHT22;7953;54.302;10.128;2023-08-31T02:05:19;14.00;99.90
15707;DHT22;7953;54.302;10.128;2023-08-31T02:07:46;14.00;99.90
15707;DHT22;7953;54.302;10.128;2023-08-31T02:10:12;14.00;99.90
15707;DHT22;7953;54.302;10.128;2023-08-31T02:12:39;14.00;99.90
15707;DHT22;7953;54.302;10.128;2023-08-31T02:15:07;14.10;99.90
15707;DHT22;7953;54.302;10.128;2023-08-31T02:17:35;14.00;99.90
15707;DHT22;7953;54.302;10.128;2023-08-31T02:20:03;13.90;99.90
15707;DHT22;7953;54.302;10.128;2023-08-31T02:22:34;13.90;99.90
15707;DHT22;7953;54.302;10.128;2023-08-31T02:25:01;13.90;99.90
15707;DHT22;7953;54.302;10.128;2023-08-31T02:27:28;13.90;99.90
15707;DHT22;7953;54.302;10.128;2023-08-31T02:29:54;13.90;99.90
15707;DHT22;7953;54.302;10.128;2023-08-31T02:32:21;13.90;99.90
15707;DHT22;7953;54.302;10.128;2023-08-31T02:34:50;13.90;99.90
15707;DHT22;7953;54.302;10.128;2023-08-31T02:37:17;13.80;99.90
15707;DHT22;7953;54.302;10.128;2023-08-31T02:39:44;13.80;99.90
15707;DHT22;7953;54.302;10.128;2023-08-31T02:42:11;13.80;99.90
15707;DHT22;7953;54.302;10.128;2023-08-31T02:44:37;13.80;99.90
15707;DHT22;7953;54.302;10.128;2023-08-31T02:47:04;13.70;99.90
15707;DHT22;7953;54.302;10.128;2023-08-31T02:49:31;13.70;99.90
15707;DHT22;7953;54.302;10.128;2023-08-31T02:52:00;13.80;99.90
15707;DHT22;7953;54.302;10.128;2023-08-31T02:54:26;13.80;99.90
15707;DHT22;7953;54.302;10.128;2023-08-31T02:56:53;13.80;99.90
15707;DHT22;7953;54.302;10.128;2023-08-31T02:59:20;13.80;99.90
15707;DHT22;7953;54.302;10.128;2023-08-31T03:01:48;13.80;99.90
15707;DHT22;7953;54.302;10.128;2023-08-31T03:04:15;13.80;99.90
15707;DHT22;7953;54.302;10.128;2023-08-31T03:06:43;13.70;99.90
15707;DHT22;7953;54.302;10.128;2023-08-31T03:09:12;13.70;99.90
15707;DHT22;7953;54.302;10.128;2023-08-31T03:11:39;13.80;99.90
15707;DHT22;7953;54.302;10.128;2023-08-31T03:14:06;13.70;99.90
15707;DHT22;7953;54.302;10.128;2023-08-31T03:16:34;13.70;99.90
15707;DHT22;7953;54.302;10.128;2023-08-31T03:19:01;13.80;99.90
15707;DHT22;7953;54.302;10.128;2023-08-31T03:21:28;13.80;99.90
15707;DHT22;7953;54.302;10.128;2023-08-31T03:23:55;13.80;99.90
15707;DHT22;7953;54.302;10.128;2023-08-31T03:26:23;13.80;99.90
15707;DHT22;7953;54.302;10.128;2023-08-31T03:28:50;13.80;99.90
15707;DHT22;7953;54.302;10.128;2023-08-31T03:31:17;13.80;99.90
15707;DHT22;7953;54.302;10.128;2023-08-31T03:33:44;13.70;99.90
15707;DHT22;7953;54.302;10.128;2023-08-31T03:36:11;13.70;99.90
15707;DHT22;7953;54.302;10.128;2023-08-31T03:38:38;13.70;99.90
15707;DHT22;7953;54.302;10.128;2023-08-31T03:41:06;13.70;99.90
15707;DHT22;7953;54.302;10.128;2023-08-31T03:43:34;13.70;99.90
15707;DHT22;7953;54.302;10.128;2023-08-31T03:46:01;13.70;99.90
15707;DHT22;7953;54.302;10.128;2023-08-31T03:48:28;13.70;99.90
15707;DHT22;7953;54.302;10.128;2023-08-31T03:50:55;13.70;99.90
15707;DHT22;7953;54.302;10.128;2023-08-31T03:53:22;13.70;99.90
15707;DHT22;7953;54.302;10.128;2023-08-31T03:55:49;13.70;99.90
15707;DHT22;7953;54.302;10.128;2023-08-31T03:58:16;13.70;99.90
15707;DHT22;7953;54.302;10.128;2023-08-31T04:00:44;13.60;99.90
15707;DHT22;7953;54.302;10.128;2023-08-31T04:03:11;13.60;99.90
15707;DHT22;7953;54.302;10.128;2023-08-31T04:05:38;13.70;99.90
15707;DHT22;7953;54.302;10.128;2023-08-31T04:08:05;13.70;99.90
15707;DHT22;7953;54.302;10.128;2023-08-31T04:10:32;13.60;99.90
15707;DHT22;7953;54.302;10.128;2023-08-31T04:12:59;13.60;99.90
15707;DHT22;7953;54.302;10.128;2023-08-31T04:15:26;13.60;99.90
15707;DHT22;7953;54.302;10.128;2023-08-31T04:17:54;13.60;99.90
15707;DHT22;7953;54.302;10.128;2023-08-31T04:20:21;13.60;99.90
15707;DHT22;7953;54.302;10.128;2023-08-31T04:22:49;13.60;99.90
15707;DHT22;7953;54.302;10.128;2023-08-31T04:25:16;13.50;99.90
15707;DHT22;7953;54.302;10.128;2023-08-31T04:27:43;13.50;99.90
15707;DHT22;7953;54.302;10.128;2023-08-31T04:30:11;13.50;99.90
15707;DHT22;7953;54.302;10.128;2023-08-31T04:32:38;13.50;99.90
15707;DHT22;7953;54.302;10.128;2023-08-31T04:35:07;13.50;99.90
15707;DHT22;7953;54.302;10.128;2023-08-31T04:37:34;13.40;99.90
15707;DHT22;7953;54.302;10.128;2023-08-31T04:40:01;13.40;99.90
15707;DHT22;7953;54.302;10.128;2023-08-31T04:42:29;13.40;99.90
15707;DHT22;7953;54.302;10.128;2023-08-31T04:44:56;13.40;99.90
15707;DHT22;7953;54.302;10.128;2023-08-31T04:47:23;13.40;99.90
15707;DHT22;7953;54.302;10.128;2023-08-31T04:49:50;13.30;99.90
15707;DHT22;7953;54.302;10.128;2023-08-31T04:52:18;13.30;99.90
15707;DHT22;7953;54.302;10.128;2023-08-31T04:54:45;13.20;99.90
15707;DHT22;7953;54.302;10.128;2023-08-31T04:57:11;13.20;99.90
15707;DHT22;7953;54.302;10.128;2023-08-31T04:59:38;13.20;99.90
15707;DHT22;7953;54.302;10.128;2023-08-31T05:02:05;13.20;99.90
15707;DHT22;7953;54.302;10.128;2023-08-31T05:04:32;13.10;99.90
15707;DHT22;7953;54.302;10.128;2023-08-31T05:06:59;13.10;99.90
15707;DHT22;7953;54.302;10.128;2023-08-31T05:09:27;13.10;99.90
15707;DHT22;7953;54.302;10.128;2023-08-31T05:11:57;13.10;99.90
15707;DHT22;7953;54.302;10.128;2023-08-31T05:14:24;13.10;99.90
15707;DHT22;7953;54.302;10.128;2023-08-31T05:16:51;13.10;99.90
15707;DHT22;7953;54.302;10.128;2023-08-31T05:19:18;13.10;99.90
15707;DHT22;7953;54.302;10.128;2023-08-31T05:21:45;13.00;99.90
15707;DHT22;7953;54.302;10.128;2023-08-31T05:24:12;13.00;99.90
15707;DHT22;7953;54.302;10.128;2023-08-31T05:26:40;13.00;99.90
15707;DHT22;7953;54.302;10.128;2023-08-31T05:29:07;13.00;99.90
15707;DHT22;7953;54.302;10.128;2023-08-31T05:31:34;12.90;99.90
15707;DHT22;7953;54.302;10.128;2023-08-31T05:34:02;12.90;99.90
15707;DHT22;7953;54.302;10.128;2023-08-31T05:36:29;12.80;99.90
15707;DHT22;7953;54.302;10.128;2023-08-31T05:38:56;12.80;99.90
15707;DHT22;7953;54.302;10.128;2023-08-31T05:41:23;12.80;99.90
15707;DHT22;7953;54.302;10.128;2023-08-31T05:43:51;12.70;99.90
15707;DHT22;7953;54.302;10.128;2023-08-31T05:46:18;12.60;99.90
15707;DHT22;7953;54.302;10.128;2023-08-31T05:48:46;12.70;99.90
15707;DHT22;7953;54.302;10.128;2023-08-31T05:51:12;12.60;99.90
15707;DHT22;7953;54.302;10.128;2023-08-31T05:53:39;12.70;99.90
15707;DHT22;7953;54.302;10.128;2023-08-31T05:56:06;12.70;99.90
15707;DHT22;7953;54.302;10.128;2023-08-31T05:58:35;12.70;99.90
15707;DHT22;7953;54.302;10.128;2023-08-31T06:01:04;12.70;99.90
15707;DHT22;7953;54.302;10.128;2023-08-31T06:03:31;12.80;99.90
15707;DHT22;7953;54.302;10.128;2023-08-31T06:05:59;12.70;99.90
15707;DHT22;7953;54.302;10.128;2023-08-31T06:08:26;12.80;99.90
15707;DHT22;7953;54.302;10.128;2023-08-31T06:10:53;12.70;99.90
15707;DHT22;7953;54.302;10.128;2023-08-31T06:13:20;12.80;99.90
15707;DHT22;7953;54.302;10.128;2023-08-31T06:15:47;12.70;99.90
15707;DHT22;7953;54.302;10.128;2023-08-31T06:18:15;12.80;99.90
15707;DHT22;7953;54.302;10.128;2023-08-31T06:20:42;12.80;99.90
15707;DHT22;7953;54.302;10.128;2023-08-31T06:23:10;12.80;99.90
15707;DHT22;7953;54.302;10.128;2023-08-31T06:25:37;12.90;99.90
15707;DHT22;7953;54.302;10.128;2023-08-31T06:28:05;12.90;99.90
15707;DHT22;7953;54.302;10.128;2023-08-31T06:30:34;12.90;99.90
15707;DHT22;7953;54.302;10.128;2023-08-31T06:33:01;13.00;99.90
15707;DHT22;7953;54.302;10.128;2023-08-31T06:35:29;13.00;99.90
15707;DHT22;7953;54.302;10.128;2023-08-31T06:37:56;13.10;99.90
15707;DHT22;7953;54.302;10.128;2023-08-31T06:40:24;13.20;99.90
15707;DHT22;7953;54.302;10.128;2023-08-31T06:42:51;13.20;99.90
15707;DHT22;7953;54.302;10.128;2023-08-31T06:45:18;13.30;99.90
15707;DHT22;7953;54.302;10.128;2023-08-31T06:47:45;13.30;99.90
15707;DHT22;7953;54.302;10.128;2023-08-31T06:50:12;13.30;99.90
15707;DHT22;7953;54.302;10.128;2023-08-31T06:52:40;13.40;99.90
15707;DHT22;7953;54.302;10.128;2023-08-31T06:55:08;13.40;99.90
15707;DHT22;7953;54.302;10.128;2023-08-31T06:57:36;13.40;99.90
15707;DHT22;7953;54.302;10.128;2023-08-31T07:00:04;13.50;99.90
15707;DHT22;7953;54.302;10.128;2023-08-31T07:02:34;13.50;99.90
15707;DHT22;7953;54.302;10.128;2023-08-31T07:05:01;13.60;99.90
15707;DHT22;7953;54.302;10.128;2023-08-31T07:07:29;13.60;99.90
15707;DHT22;7953;54.302;10.128;2023-08-31T07:09:57;13.70;99.90
15707;DHT22;7953;54.302;10.128;2023-08-31T07:12:25;13.80;99.90
15707;DHT22;7953;54.302;10.128;2023-08-31T07:14:52;13.80;99.90
15707;DHT22;7953;54.302;10.128;2023-08-31T07:17:19;13.80;99.90
15707;DHT22;7953;54.302;10.128;2023-08-31T07:19:46;13.90;99.90
15707;DHT22;7953;54.302;10.128;2023-08-31T07:22:13;13.90;99.90
15707;DHT22;7953;54.302;10.128;2023-08-31T07:24:40;13.90;99.90
15707;DHT22;7953;54.302;10.128;2023-08-31T07:27:08;14.00;99.90
15707;DHT22;7953;54.302;10.128;2023-08-31T07:29:35;14.10;99.90
15707;DHT22;7953;54.302;10.128;2023-08-31T07:32:02;14.10;99.90
15707;DHT22;7953;54.302;10.128;2023-08-31T07:34:29;14.10;99.90
15707;DHT22;7953;54.302;10.128;2023-08-31T07:36:56;14.10;99.90
15707;DHT22;7953;54.302;10.128;2023-08-31T07:39:23;14.20;99.90
15707;DHT22;7953;54.302;10.128;2023-08-31T07:41:50;14.30;99.90
15707;DHT22;7953;54.302;10.128;2023-08-31T07:44:18;14.30;99.90
15707;DHT22;7953;54.302;10.128;2023-08-31T07:46:45;14.40;99.90
15707;DHT22;7953;54.302;10.128;2023-08-31T07:49:12;14.40;99.90
15707;DHT22;7953;54.302;10.128;2023-08-31T07:51:39;14.40;99.90
15707;DHT22;7953;54.302;10.128;2023-08-31T07:54:06;14.50;99.90
15707;DHT22;7953;54.302;10.128;2023-08-31T07:56:33;14.60;99.90
15707;DHT22;7953;54.302;10.128;2023-08-31T07:59:00;14.70;99.90
15707;DHT22;7953;54.302;10.128;2023-08-31T08:01:28;14.70;99.90
15707;DHT22;7953;54.302;10.128;2023-08-31T08:03:55;14.70;99.90
15707;DHT22;7953;54.302;10.128;2023-08-31T08:06:22;14.80;99.90
15707;DHT22;7953;54.302;10.128;2023-08-31T08:08:49;14.90;99.90
15707;DHT22;7953;54.302;10.128;2023-08-31T08:11:16;15.10;99.90
15707;DHT22;7953;54.302;10.128;2023-08-31T08:13:42;15.10;99.90
15707;DHT22;7953;54.302;10.128;2023-08-31T08:16:09;15.20;99.90
15707;DHT22;7953;54.302;10.128;2023-08-31T08:18:37;15.30;99.90
15707;DHT22;7953;54.302;10.128;2023-08-31T08:21:04;15.40;99.90
15707;DHT22;7953;54.302;10.128;2023-08-31T08:23:31;15.50;99.90
15707;DHT22;7953;54.302;10.128;2023-08-31T08:25:58;15.70;99.90
15707;DHT22;7953;54.302;10.128;2023-08-31T08:28:25;15.90;99.90
15707;DHT22;7953;54.302;10.128;2023-08-31T08:30:52;16.10;99.90
15707;DHT22;7953;54.302;10.128;2023-08-31T08:33:19;16.30;99.90
15707;DHT22;7953;54.302;10.128;2023-08-31T08:35:47;16.50;99.90
15707;DHT22;7953;54.302;10.128;2023-08-31T08:38:14;16.70;99.90
15707;DHT22;7953;54.302;10.128;2023-08-31T08:40:41;16.90;99.90
15707;DHT22;7953;54.302;10.128;2023-08-31T08:43:08;17.00;99.90
15707;DHT22;7953;54.302;10.128;2023-08-31T08:45:38;17.30;99.90
15707;DHT22;7953;54.302;10.128;2023-08-31T08:48:07;17.40;99.90
15707;DHT22;7953;54.302;10.128;2023-08-31T08:50:35;17.60;99.90
15707;DHT22;7953;54.302;10.128;2023-08-31T08:53:05;17.90;99.90
15707;DHT22;7953;54.302;10.128;2023-08-31T08:55:32;18.20;99.90
15707;DHT22;7953;54.302;10.128;2023-08-31T08:57:59;18.40;99.90
15707;DHT22;7953;54.302;10.128;2023-08-31T09:00:27;18.60;99.90
15707;DHT22;7953;54.302;10.128;2023-08-31T09:02:54;18.90;99.90
15707;DHT22;7953;54.302;10.128;2023-08-31T09:05:22;19.10;99.90
15707;DHT22;7953;54.302;10.128;2023-08-31T09:08:12;18.90;99.90
15707;DHT22;7953;54.302;10.128;2023-08-31T09:10:42;18.90;99.90
15707;DHT22;7953;54.302;10.128;2023-08-31T09:13:11;18.60;99.90
15707;DHT22;7953;54.302;10.128;2023-08-31T09:15:42;18.50;99.90
15707;DHT22;7953;54.302;10.128;2023-08-31T09:18:14;18.50;99.90
15707;DHT22;7953;54.302;10.128;2023-08-31T09:20:45;18.10;99.90
15707;DHT22;7953;54.302;10.128;2023-08-31T09:23:14;18.20;99.90
15707;DHT22;7953;54.302;10.128;2023-08-31T09:25:44;18.40;99.90
15707;DHT22;7953;54.302;10.128;2023-08-31T09:28:13;18.60;99.90
15707;DHT22;7953;54.302;10.128;2023-08-31T09:30:40;18.70;99.90
15707;DHT22;7953;54.302;10.128;2023-08-31T09:33:08;18.70;99.90
15707;DHT22;7953;54.302;10.128;2023-08-31T09:35:39;18.80;99.90
15707;DHT22;7953;54.302;10.128;2023-08-31T09:38:10;19.10;99.90
15707;DHT22;7953;54.302;10.128;2023-08-31T09:40:38;19.30;99.90
15707;DHT22;7953;54.302;10.128;2023-08-31T09:43:05;19.10;99.90
15707;DHT22;7953;54.302;10.128;2023-08-31T09:45:33;19.00;99.90
15707;DHT22;7953;54.302;10.128;2023-08-31T09:48:02;18.90;99.90
15707;DHT22;7953;54.302;10.128;2023-08-31T09:50:29;18.80;99.90
15707;DHT22;7953;54.302;10.128;2023-08-31T09:53:00;18.70;99.90
15707;DHT22;7953;54.302;10.128;2023-08-31T09:55:30;18.70;99.90
15707;DHT22;7953;54.302;10.128;2023-08-31T09:58:00;18.70;99.90
15707;DHT22;7953;54.302;10.128;2023-08-31T10:00:29;18.50;99.90
15707;DHT22;7953;54.302;10.128;2023-08-31T10:03:00;18.30;99.90
15707;DHT22;7953;54.302;10.128;2023-08-31T10:05:28;18.10;99.90
15707;DHT22;7953;54.302;10.128;2023-08-31T10:07:55;17.80;99.90
15707;DHT22;7953;54.302;10.128;2023-08-31T10:10:22;17.80;99.90
15707;DHT22;7953;54.302;10.128;2023-08-31T10:12:49;17.70;99.90
15707;DHT22;7953;54.302;10.128;2023-08-31T10:15:18;17.70;99.90
15707;DHT22;7953;54.302;10.128;2023-08-31T10:17:46;17.70;99.90
15707;DHT22;7953;54.302;10.128;2023-08-31T10:20:15;17.50;99.90
15707;DHT22;7953;54.302;10.128;2023-08-31T10:22:42;17.40;99.90
15707;DHT22;7953;54.302;10.128;2023-08-31T10:25:10;17.70;99.90
15707;DHT22;7953;54.302;10.128;2023-08-31T10:27:38;17.90;99.90
15707;DHT22;7953;54.302;10.128;2023-08-31T10:30:19;18.30;99.90
15707;DHT22;7953;54.302;10.128;2023-08-31T10:33:20;18.40;99.90
15707;DHT22;7953;54.302;10.128;2023-08-31T10:35:52;18.50;99.90
15707;DHT22;7953;54.302;10.128;2023-08-31T10:38:27;18.70;99.90
15707;DHT22;7953;54.302;10.128;2023-08-31T10:41:02;19.00;99.90
15707;DHT22;7953;54.302;10.128;2023-08-31T10:43:43;19.10;99.90
15707;DHT22;7953;54.302;10.128;2023-08-31T10:46:29;18.90;99.90
15707;DHT22;7953;54.302;10.128;2023-08-31T10:48:58;19.20;99.90
15707;DHT22;7953;54.302;10.128;2023-08-31T10:51:27;19.40;99.90
15707;DHT22;7953;54.302;10.128;2023-08-31T10:54:06;19.40;99.90
15707;DHT22;7953;54.302;10.128;2023-08-31T10:56:55;19.40;99.90
15707;DHT22;7953;54.302;10.128;2023-08-31T10:59:23;19.20;99.90
15707;DHT22;7953;54.302;10.128;2023-08-31T11:01:59;18.90;99.90
15707;DHT22;7953;54.302;10.128;2023-08-31T11:04:31;19.00;99.90
15707;DHT22;7953;54.302;10.128;2023-08-31T11:07:19;19.20;99.90
15707;DHT22;7953;54.302;10.128;2023-08-31T11:09:46;19.30;99.90
15707;DHT22;7953;54.302;10.128;2023-08-31T11:12:13;19.30;99.90
15707;DHT22;7953;54.302;10.128;2023-08-31T11:14:40;19.60;99.90
15707;DHT22;7953;54.302;10.128;2023-08-31T11:17:07;19.50;99.90
15707;DHT22;7953;54.302;10.128;2023-08-31T11:19:37;19.70;99.90
15707;DHT22;7953;54.302;10.128;2023-08-31T11:22:04;20.00;99.90
15707;DHT22;7953;54.302;10.128;2023-08-31T11:24:35;20.10;99.90
15707;DHT22;7953;54.302;10.128;2023-08-31T11:27:02;20.30;99.90
15707;DHT22;7953;54.302;10.128;2023-08-31T11:29:29;20.20;99.90
15707;DHT22;7953;54.302;10.128;2023-08-31T11:31:56;20.10;99.90
15707;DHT22;7953;54.302;10.128;2023-08-31T11:34:25;20.00;99.90
15707;DHT22;7953;54.302;10.128;2023-08-31T11:36:54;20.10;99.90
15707;DHT22;7953;54.302;10.128;2023-08-31T11:39:21;20.30;99.90
15707;DHT22;7953;54.302;10.128;2023-08-31T11:41:49;20.20;99.90
15707;DHT22;7953;54.302;10.128;2023-08-31T11:44:17;20.10;99.90
15707;DHT22;7953;54.302;10.128;2023-08-31T11:46:45;20.30;99.90
15707;DHT22;7953;54.302;10.128;2023-08-31T11:49:14;20.50;99.90
15707;DHT22;7953;54.302;10.128;2023-08-31T11:51:41;20.60;99.90
15707;DHT22;7953;54.302;10.128;2023-08-31T11:54:10;20.80;99.90
15707;DHT22;7953;54.302;10.128;2023-08-31T11:56:40;20.90;99.90
15707;DHT22;7953;54.302;10.128;2023-08-31T11:59:09;20.80;99.90
15707;DHT22;7953;54.302;10.128;2023-08-31T12:01:38;20.60;99.90
15707;DHT22;7953;54.302;10.128;2023-08-31T12:04:10;20.20;99.90
15707;DHT22;7953;54.302;10.128;2023-08-31T12:06:37;20.20;99.90
15707;DHT22;7953;54.302;10.128;2023-08-31T12:09:05;20.50;99.90
15707;DHT22;7953;54.302;10.128;2023-08-31T12:11:34;20.60;99.90
15707;DHT22;7953;54.302;10.128;2023-08-31T12:14:01;20.20;99.90
15707;DHT22;7953;54.302;10.128;2023-08-31T12:16:33;20.10;99.90
15707;DHT22;7953;54.302;10.128;2023-08-31T12:19:02;20.30;99.90
15707;DHT22;7953;54.302;10.128;2023-08-31T12:21:30;20.40;99.90
15707;DHT22;7953;54.302;10.128;2023-08-31T12:23:58;20.30;99.90
15707;DHT22;7953;54.302;10.128;2023-08-31T12:26:25;20.10;99.90
15707;DHT22;7953;54.302;10.128;2023-08-31T12:28:53;19.80;99.90
15707;DHT22;7953;54.302;10.128;2023-08-31T12:31:20;19.70;99.90
15707;DHT22;7953;54.302;10.128;2023-08-31T12:33:47;19.60;99.90
15707;DHT22;7953;54.302;10.128;2023-08-31T12:36:14;19.50;99.90
15707;DHT22;7953;54.302;10.128;2023-08-31T12:38:40;19.20;99.90
15707;DHT22;7953;54.302;10.128;2023-08-31T12:41:07;19.00;99.90
15707;DHT22;7953;54.302;10.128;2023-08-31T12:43:34;18.80;99.90
15707;DHT22;7953;54.302;10.128;2023-08-31T12:46:03;18.60;99.90
15707;DHT22;7953;54.302;10.128;2023-08-31T12:48:31;18.60;99.90
15707;DHT22;7953;54.302;10.128;2023-08-31T12:50:58;18.80;99.90
15707;DHT22;7953;54.302;10.128;2023-08-31T12:53:25;18.70;99.90
15707;DHT22;7953;54.302;10.128;2023-08-31T12:55:52;18.70;99.90
15707;DHT22;7953;54.302;10.128;2023-08-31T12:58:19;18.80;99.90
15707;DHT22;7953;54.302;10.128;2023-08-31T13:00:47;18.90;99.90
15707;DHT22;7953;54.302;10.128;2023-08-31T13:03:17;19.10;99.90
15707;DHT22;7953;54.302;10.128;2023-08-31T13:05:44;19.20;99.90
15707;DHT22;7953;54.302;10.128;2023-08-31T13:08:11;19.40;99.90
15707;DHT22;7953;54.302;10.128;2023-08-31T13:10:37;19.50;99.90
15707;DHT22;7953;54.302;10.128;2023-08-31T13:13:04;19.60;99.90
15707;DHT22;7953;54.302;10.128;2023-08-31T13:15:31;19.60;99.90
15707;DHT22;7953;54.302;10.128;2023-08-31T13:17:58;19.50;99.90
15707;DHT22;7953;54.302;10.128;2023-08-31T13:20:27;19.70;99.90
15707;DHT22;7953;54.302;10.128;2023-08-31T13:22:53;19.70;99.90
15707;DHT22;7953;54.302;10.128;2023-08-31T13:25:20;20.00;99.90
15707;DHT22;7953;54.302;10.128;2023-08-31T13:27:47;19.90;99.90
15707;DHT22;7953;54.302;10.128;2023-08-31T13:30:14;19.90;99.90
15707;DHT22;7953;54.302;10.128;2023-08-31T13:32:41;19.80;99.90
15707;DHT22;7953;54.302;10.128;2023-08-31T13:35:10;19.70;99.90
15707;DHT22;7953;54.302;10.128;2023-08-31T13:37:38;19.70;99.90
15707;DHT22;7953;54.302;10.128;2023-08-31T13:40:06;19.90;99.90
15707;DHT22;7953;54.302;10.128;2023-08-31T13:42:35;19.80;99.90
15707;DHT22;7953;54.302;10.128;2023-08-31T13:45:06;19.80;99.90
15707;DHT22;7953;54.302;10.128;2023-08-31T13:47:33;20.00;99.90
15707;DHT22;7953;54.302;10.128;2023-08-31T13:50:00;20.10;99.90
15707;DHT22;7953;54.302;10.128;2023-08-31T13:52:27;20.30;99.90
15707;DHT22;7953;54.302;10.128;2023-08-31T13:54:55;20.30;99.90
15707;DHT22;7953;54.302;10.128;2023-08-31T13:57:22;20.20;99.90
15707;DHT22;7953;54.302;10.128;2023-08-31T13:59:49;20.50;99.90
15707;DHT22;7953;54.302;10.128;2023-08-31T14:02:16;20.60;99.90
15707;DHT22;7953;54.302;10.128;2023-08-31T14:04:43;20.50;99.90
15707;DHT22;7953;54.302;10.128;2023-08-31T14:07:09;20.50;99.90
15707;DHT22;7953;54.302;10.128;2023-08-31T14:09:37;20.30;99.90
15707;DHT22;7953;54.302;10.128;2023-08-31T14:12:06;20.10;99.90
15707;DHT22;7953;54.302;10.128;2023-08-31T14:14:33;19.90;99.90
15707;DHT22;7953;54.302;10.128;2023-08-31T14:16:59;19.80;99.90
15707;DHT22;7953;54.302;10.128;2023-08-31T14:19:26;19.80;99.90
15707;DHT22;7953;54.302;10.128;2023-08-31T14:21:53;19.70;99.90
15707;DHT22;7953;54.302;10.128;2023-08-31T14:24:20;19.70;99.90
15707;DHT22;7953;54.302;10.128;2023-08-31T14:26:47;19.50;99.90
15707;DHT22;7953;54.302;10.128;2023-08-31T14:29:15;19.30;99.90
15707;DHT22;7953;54.302;10.128;2023-08-31T14:31:42;19.20;99.90
15707;DHT22;7953;54.302;10.128;2023-08-31T14:34:09;19.20;99.90
15707;DHT22;7953;54.302;10.128;2023-08-31T14:36:36;19.10;99.90
15707;DHT22;7953;54.302;10.128;2023-08-31T14:39:03;19.00;99.90
15707;DHT22;7953;54.302;10.128;2023-08-31T14:41:30;18.70;99.90
15707;DHT22;7953;54.302;10.128;2023-08-31T14:43:57;18.80;99.90
15707;DHT22;7953;54.302;10.128;2023-08-31T14:46:25;18.80;99.90
15707;DHT22;7953;54.302;10.128;2023-08-31T14:48:52;18.80;99.90
15707;DHT22;7953;54.302;10.128;2023-08-31T14:51:19;18.80;99.90
15707;DHT22;7953;54.302;10.128;2023-08-31T14:53:46;18.90;99.90
15707;DHT22;7953;54.302;10.128;2023-08-31T14:56:13;19.00;99.90
15707;DHT22;7953;54.302;10.128;2023-08-31T14:58:39;19.20;99.90
15707;DHT22;7953;54.302;10.128;2023-08-31T15:01:06;19.50;99.90
15707;DHT22;7953;54.302;10.128;2023-08-31T15:03:35;19.70;99.90
15707;DHT22;7953;54.302;10.128;2023-08-31T15:06:03;19.70;99.90
15707;DHT22;7953;54.302;10.128;2023-08-31T15:08:39;19.70;99.90
15707;DHT22;7953;54.302;10.128;2023-08-31T15:11:07;19.50;99.90
15707;DHT22;7953;54.302;10.128;2023-08-31T15:13:34;19.20;99.90
15707;DHT22;7953;54.302;10.128;2023-08-31T15:16:01;19.20;99.90
15707;DHT22;7953;54.302;10.128;2023-08-31T15:18:28;19.30;99.90
15707;DHT22;7953;54.302;10.128;2023-08-31T15:20:56;19.30;99.90
15707;DHT22;7953;54.302;10.128;2023-08-31T15:23:23;19.10;99.90
15707;DHT22;7953;54.302;10.128;2023-08-31T15:25:50;19.20;99.90
15707;DHT22;7953;54.302;10.128;2023-08-31T15:28:17;19.20;99.90
15707;DHT22;7953;54.302;10.128;2023-08-31T15:30:44;19.10;99.90
15707;DHT22;7953;54.302;10.128;2023-08-31T15:33:10;19.20;99.90
15707;DHT22;7953;54.302;10.128;2023-08-31T15:35:37;19.10;99.90